HKMO/MBA METAR and TAF weather

Enter ICAO airport designator
Station Type Date Time Source
HKMO METAR 2019/10/21 05:00 UTC NOAA

HKMO 210500Z 24005KT 9999 FEW020 26/24 Q1014 NOSIG


Station Type Date Time Source
HKMO Decoded METAR 2019/10/21 05:00 UTC NOAA

Mombasa, Kenya (HKMO) 04-02S 039-37E 55M
Oct 21, 2019 - 01:00 AM EDT / 2019.10.21 0500 UTC
Wind: from the WSW (240 degrees) at 6 MPH (5 KT):0
Visibility: greater than 7 mile(s):0
Sky conditions: mostly clear
Temperature: 78 F (26 C)
Dew Point: 75 F (24 C)
Relative Humidity: 88%
Pressure (altimeter): 29.94 in. Hg (1014 hPa)
ob: HKMO 210500Z 24005KT 9999 FEW020 26/24 Q1014 NOSIG
cycle: 5

Station Type Date Time Source
HKMO TAF 2019/10/21 06:57 UTC NOAA

TAF TAF HKMO 210500Z 2106/2212 22005KT 9999 SCT020
BECMG 2109/2112 15010KT FEW025
BECMG 2118/2121 18005KT FEW023
TEMPO 2200/2206 00000KT -SHRA BKN018 BKN080
BECMG 2209/2212 16010KT FEW026

Example: see airport list